DAUI

In Salah Airport

In Salah, Algeria
METAR DAUI 182000Z 03011KT CAVOK 14/M08 Q1014
Observed Flight Rules
Jan-18 @ 20:00 UTC (13 minutes ago) Visual Flight Rules
Wind Visibility Clouds
30° at 11 knots 10,000+ meters
  • Clear skies
Temperatures Readings
Current 14°C / 57°F
Dewpoint -8°C / 18°F
Humidity 21%
Altimeter 29.94" Hg
Pressure 1013.92 hPa
Elevation 269
METAR DAUI 182000Z 03011KT CAVOK 14/M08 Q1014
Observed Flight Rules
Jan-18 @ 20:00 UTC
(13 minutes ago)
VFR
Wind Visibility
30° at 11 knots 10,000+ meters
Clouds
  • Clear skies
Temperature Dewpoint
14°C / 57°F -8°C / 18°F
Humidity Altimeter Pressure
21% 29.94" Hg 1013.92 hPa